Time;durP1;ratioP1;P1;durP2;ratioP2;P2;SDS_P1;SDS_P2;PMS_P1;PMS_P2;Temp;Humidity;BMP_temperature;BMP_pressure;BME280_temperature;BME280_humidity;BME280_pressure;Samples;Min_cycle;Max_cycle;Signal;HPM_P1;HPM_P2
2022/12/02 00:01:15;;;;;;;21.37;12.37;;;9.50;77.20;9.40;96625.00;;;;5052855;28;20200;-85
2022/12/02 00:03:43;;;;;;;24.67;12.57;;;9.50;77.20;9.40;96622.00;;;;5052265;28;20299;-85
2022/12/02 00:06:21;;;;;;;21.07;13.23;;;9.50;77.40;9.40;96618.00;;;;5050806;28;21109;-85
2022/12/02 00:08:48;;;;;;;28.63;13.83;;;9.50;77.50;9.40;96621.00;;;;5054411;28;20259;-85
2022/12/02 00:11:27;;;;;;;20.17;12.43;;;9.50;77.60;9.40;96614.00;;;;5054890;28;20235;-84
2022/12/02 00:13:57;;;;;;;20.53;12.13;;;9.50;77.60;9.40;96617.00;;;;5050256;28;20886;-85
2022/12/02 00:16:26;;;;;;;22.70;13.63;;;9.50;77.50;9.40;96615.00;;;;5055015;28;20295;-84
2022/12/02 00:18:55;;;;;;;20.33;12.97;;;9.50;77.50;9.40;96616.00;;;;5054738;28;20724;-84
2022/12/02 00:21:23;;;;;;;20.53;13.23;;;9.50;77.60;9.40;96612.00;;;;5059060;28;20323;-86
2022/12/02 00:23:50;;;;;;;22.33;13.47;;;9.50;77.60;9.40;96609.00;;;;5056301;28;20228;-85
2022/12/02 00:26:18;;;;;;;22.67;13.33;;;9.50;77.50;9.40;96613.00;;;;5058814;28;20314;-84
2022/12/02 00:28:45;;;;;;;21.00;12.83;;;9.50;77.40;9.40;96611.00;;;;5061178;28;20287;-85
2022/12/02 00:31:12;;;;;;;20.57;12.97;;;9.50;77.40;9.40;96608.00;;;;5058597;28;20288;-84
2022/12/02 00:33:39;;;;;;;20.53;12.47;;;9.50;77.40;9.40;96609.00;;;;5055155;28;20843;-85
2022/12/02 00:36:07;;;;;;;20.97;13.67;;;9.50;77.20;9.50;96605.00;;;;5053161;28;20647;-85
2022/12/02 00:38:35;;;;;;;24.40;14.07;;;9.50;77.30;9.40;96606.00;;;;5055125;28;20896;-85
2022/12/02 00:41:03;;;;;;;23.17;13.87;;;9.50;77.40;9.40;96604.00;;;;5054860;28;20279;-84
2022/12/02 00:46:33;;;;;;;24.00;14.27;;;9.50;77.30;9.40;96603.00;;;;5055036;28;20795;-85
2022/12/02 00:49:04;;;;;;;22.07;13.40;;;9.50;77.30;9.40;96595.00;;;;5055600;28;20184;-83
2022/12/02 00:51:31;;;;;;;21.00;13.40;;;9.50;77.30;9.40;96595.00;;;;5056465;28;20725;-85
2022/12/02 00:54:00;;;;;;;28.63;13.53;;;9.50;77.30;9.40;96596.00;;;;5054816;28;20312;-84
2022/12/02 00:56:27;;;;;;;26.40;13.87;;;9.50;77.40;9.40;96601.00;;;;5053432;28;20627;-85
2022/12/02 00:58:54;;;;;;;21.47;13.67;;;9.50;77.40;9.40;96602.00;;;;5051474;28;20794;-84
2022/12/02 01:01:22;;;;;;;24.27;14.33;;;9.50;77.50;9.40;96603.00;;;;5053462;28;20251;-85
2022/12/02 01:03:50;;;;;;;21.97;13.73;;;9.50;77.40;9.40;96598.00;;;;5056197;28;20226;-85
2022/12/02 01:06:17;;;;;;;22.70;14.70;;;9.50;77.40;9.40;96599.00;;;;5055138;28;20666;-85
2022/12/02 01:08:45;;;;;;;25.20;14.17;;;9.50;77.40;9.40;96604.00;;;;5055550;28;20291;-84
2022/12/02 01:11:14;;;;;;;22.87;13.50;;;9.50;77.40;9.40;96595.00;;;;5056151;28;20220;-84
2022/12/02 01:13:41;;;;;;;22.73;14.10;;;9.50;77.40;9.30;96592.00;;;;5055583;28;20819;-84
2022/12/02 01:16:08;;;;;;;22.70;14.40;;;9.50;77.40;9.30;96586.00;;;;5052708;28;20296;-85
2022/12/02 01:18:36;;;;;;;23.17;14.13;;;9.40;77.40;9.30;96585.00;;;;5052314;28;20202;-84
2022/12/02 01:21:03;;;;;;;25.30;13.87;;;9.40;77.50;9.30;96588.00;;;;5056396;28;20262;-85
2022/12/02 01:23:30;;;;;;;23.03;13.33;;;9.40;77.50;9.30;96584.00;;;;5056129;28;20323;-85
2022/12/02 01:25:57;;;;;;;23.33;14.17;;;9.40;77.40;9.30;96583.00;;;;5054772;28;20330;-84
2022/12/02 01:28:26;;;;;;;25.70;15.23;;;9.40;77.40;9.30;96578.00;;;;5057783;28;20283;-85
2022/12/02 01:30:53;;;;;;;24.03;14.07;;;9.40;77.40;9.30;96582.00;;;;5055820;28;20206;-85
2022/12/02 01:33:20;;;;;;;23.83;13.90;;;9.40;77.30;9.30;96585.00;;;;5051534;28;20304;-85
2022/12/02 01:35:47;;;;;;;23.23;13.67;;;9.40;77.30;9.30;96581.00;;;;5054508;28;20209;-85
2022/12/02 01:38:14;;;;;;;23.53;14.53;;;9.40;77.40;9.30;96578.00;;;;5055147;28;20282;-85
2022/12/02 01:40:42;;;;;;;22.17;14.30;;;9.40;77.40;9.30;96573.00;;;;5051262;28;20276;-85
2022/12/02 01:43:10;;;;;;;23.90;14.70;;;9.40;77.50;9.30;96572.00;;;;5055468;28;20667;-85
2022/12/02 01:45:39;;;;;;;25.13;14.93;;;9.40;77.40;9.30;96572.00;;;;5053119;28;20215;-85
2022/12/02 01:48:07;;;;;;;25.90;15.00;;;9.40;77.30;9.30;96563.00;;;;5053314;28;20284;-85
2022/12/02 01:50:35;;;;;;;25.83;14.87;;;9.40;77.30;9.20;96566.00;;;;5055545;28;20235;-84
2022/12/02 01:53:02;;;;;;;28.30;14.47;;;9.40;77.30;9.20;96570.00;;;;5057009;28;20219;-85
2022/12/02 01:55:30;;;;;;;24.23;13.50;;;9.40;77.40;9.20;96565.00;;;;5055451;28;20283;-85
2022/12/02 01:57:58;;;;;;;25.83;13.80;;;9.30;77.50;9.20;96566.00;;;;5055367;28;20329;-85
2022/12/02 02:00:26;;;;;;;27.80;14.37;;;9.40;77.60;9.20;96566.00;;;;5057128;28;20200;-85
2022/12/02 02:02:55;;;;;;;26.67;15.13;;;9.30;77.50;9.20;96566.00;;;;5055796;28;20301;-85
2022/12/02 02:05:25;;;;;;;25.20;14.53;;;9.40;77.60;9.20;96575.00;;;;5052201;28;20234;-85
2022/12/02 02:07:56;;;;;;;31.03;15.50;;;9.40;77.60;9.20;96570.00;;;;5056046;28;20227;-85
2022/12/02 02:10:27;;;;;;;25.53;15.07;;;9.30;77.60;9.20;96564.00;;;;5055502;28;20227;-85
2022/12/02 02:12:54;;;;;;;26.73;14.77;;;9.40;77.60;9.20;96565.00;;;;5053632;28;20312;-86
2022/12/02 02:15:23;;;;;;;27.23;15.17;;;9.30;77.50;9.20;96567.00;;;;5054492;28;20829;-85
2022/12/02 02:17:54;;;;;;;24.67;15.10;;;9.40;77.60;9.20;96557.00;;;;5054561;28;20287;-85
2022/12/02 02:20:26;;;;;;;25.00;14.47;;;9.40;77.60;9.20;96556.00;;;;5051496;28;20205;-85
2022/12/02 02:23:01;;;;;;;24.63;15.67;;;9.30;77.50;9.20;96562.00;;;;5054048;28;20334;-85
2022/12/02 02:25:30;;;;;;;26.10;15.23;;;9.40;77.60;9.20;96556.00;;;;5057094;28;20248;-84
2022/12/02 02:28:01;;;;;;;25.63;14.77;;;9.40;77.50;9.20;96545.00;;;;5057828;28;20304;-85
2022/12/02 02:30:31;;;;;;;25.30;15.07;;;9.40;77.40;9.20;96553.00;;;;5053279;28;20196;-85
2022/12/02 02:33:00;;;;;;;25.87;14.77;;;9.30;78.10;9.20;96545.00;;;;5056377;28;20212;-85
2022/12/02 02:35:28;;;;;;;25.60;15.17;;;9.30;77.40;9.20;96547.00;;;;5054912;28;20239;-85
2022/12/02 02:37:56;;;;;;;24.60;14.73;;;9.30;77.30;9.20;96543.00;;;;5055448;28;20227;-85
2022/12/02 02:40:26;;;;;;;26.23;14.87;;;9.30;77.30;9.20;96544.00;;;;5053388;28;20211;-85
2022/12/02 02:43:00;;;;;;;28.73;15.73;;;9.30;77.40;9.20;96544.00;;;;5054315;28;21008;-85
2022/12/02 02:45:32;;;;;;;30.10;15.57;;;9.30;77.40;9.10;96534.00;;;;5055529;28;20335;-84
2022/12/02 02:48:01;;;;;;;25.00;14.70;;;9.30;77.40;9.10;96535.00;;;;5052001;28;20197;-85
2022/12/02 02:50:29;;;;;;;28.37;14.40;;;9.30;77.40;9.20;96540.00;;;;5054242;28;20215;-85
2022/12/02 02:52:57;;;;;;;24.97;14.77;;;9.30;77.50;9.20;96534.00;;;;5054971;28;20223;-85
2022/12/02 02:55:26;;;;;;;27.80;15.57;;;9.30;77.50;9.20;96536.00;;;;5050822;28;20323;-85
2022/12/02 02:57:55;;;;;;;51.27;15.40;;;9.30;77.40;9.20;96532.00;;;;5053645;28;20797;-85
2022/12/02 03:00:23;;;;;;;24.13;15.07;;;9.30;77.30;9.20;96528.00;;;;5049535;28;20794;-85
2022/12/02 03:02:54;;;;;;;27.33;15.77;;;9.30;77.40;9.20;96536.00;;;;5050674;28;20228;-86
2022/12/02 03:05:23;;;;;;;23.03;13.70;;;9.30;77.40;9.20;96521.00;;;;5053847;28;20551;-85
2022/12/02 03:07:51;;;;;;;26.37;14.77;;;9.30;77.50;9.20;96526.00;;;;5051102;28;20245;-85
2022/12/02 03:10:19;;;;;;;26.43;15.23;;;9.30;77.50;9.20;96524.00;;;;5053497;28;20201;-85
2022/12/02 03:12:52;;;;;;;28.10;14.53;;;9.30;78.20;9.20;96522.00;;;;5051785;28;20215;-84
2022/12/02 03:15:23;;;;;;;27.63;14.63;;;9.30;77.50;9.20;96525.00;;;;5052322;28;20193;-86
2022/12/02 03:17:51;;;;;;;31.20;15.90;;;9.30;77.50;9.20;96524.00;;;;5051899;28;20243;-85
2022/12/02 03:20:19;;;;;;;26.47;15.37;;;9.30;77.50;9.10;96516.00;;;;5056409;28;20205;-85
2022/12/02 03:22:46;;;;;;;27.53;14.90;;;9.30;77.60;9.10;96515.00;;;;5056458;28;20312;-85
2022/12/02 03:25:13;;;;;;;25.57;14.57;;;9.30;77.60;9.20;96517.00;;;;5048682;28;20307;-85
2022/12/02 03:27:41;;;;;;;22.47;13.87;;;9.30;77.50;9.20;96516.00;;;;5053081;28;20292;-85
2022/12/02 03:30:10;;;;;;;33.63;15.70;;;9.30;77.60;9.10;96512.00;;;;5051310;28;20209;-85
2022/12/02 03:32:39;;;;;;;23.70;14.47;;;9.30;77.60;9.20;96517.00;;;;5052277;28;21000;-84
2022/12/02 03:35:07;;;;;;;26.40;15.63;;;9.30;77.60;9.20;96514.00;;;;5050041;28;20292;-85
2022/12/02 03:37:35;;;;;;;27.10;14.73;;;9.30;77.60;9.20;96513.00;;;;5052734;28;20200;-84
2022/12/02 03:40:02;;;;;;;23.07;14.83;;;9.30;77.60;9.20;96516.00;;;;5052121;28;20202;-86
2022/12/02 03:42:29;;;;;;;24.83;14.77;;;9.30;77.70;9.20;96519.00;;;;5052452;28;20256;-85
2022/12/02 03:44:57;;;;;;;26.47;14.43;;;9.30;77.60;9.20;96523.00;;;;5053574;28;20577;-85
2022/12/02 03:47:24;;;;;;;24.97;15.30;;;9.30;77.60;9.20;96511.00;;;;5056928;28;20274;-85
2022/12/02 03:49:52;;;;;;;25.60;14.87;;;9.30;77.60;9.20;96512.00;;;;5055353;28;20841;-86
2022/12/02 03:52:20;;;;;;;24.40;15.47;;;9.30;77.60;9.20;96522.00;;;;5055743;28;20255;-85
2022/12/02 03:54:47;;;;;;;23.60;14.37;;;9.30;77.60;9.20;96508.00;;;;5060733;28;20227;-85
2022/12/02 03:57:15;;;;;;;25.83;15.17;;;9.30;77.50;9.20;96519.00;;;;5061962;28;20258;-84
2022/12/02 03:59:42;;;;;;;27.70;15.37;;;9.30;77.60;9.20;96511.00;;;;5061799;28;20224;-84
2022/12/02 04:02:09;;;;;;;26.60;15.10;;;9.30;77.50;9.20;96509.00;;;;5061142;28;20196;-84
2022/12/02 04:04:36;;;;;;;27.00;15.50;;;9.30;77.60;9.20;96510.00;;;;5063198;28;20199;-84
2022/12/02 04:07:05;;;;;;;26.57;14.60;;;9.30;77.60;9.20;96502.00;;;;5065063;28;20318;-85
2022/12/02 04:09:32;;;;;;;34.20;15.40;;;9.30;77.60;9.20;96502.00;;;;5059720;28;20345;-84
2022/12/02 04:11:59;;;;;;;26.37;14.87;;;9.30;77.60;9.20;96501.00;;;;5061107;28;20228;-84
2022/12/02 04:14:26;;;;;;;32.93;15.10;;;9.30;77.70;9.20;96501.00;;;;5063313;28;20228;-85
2022/12/02 04:16:53;;;;;;;28.93;15.77;;;9.30;77.70;9.20;96503.00;;;;5062972;28;20754;-85
2022/12/02 04:19:20;;;;;;;29.17;15.83;;;9.30;77.60;9.20;96499.00;;;;5057890;28;20284;-85
2022/12/02 04:21:47;;;;;;;27.07;15.73;;;9.30;77.70;9.20;96490.00;;;;5062822;28;20235;-85
2022/12/02 04:24:16;;;;;;;27.23;16.40;;;9.30;77.70;9.20;96491.00;;;;5060737;28;20255;-85
2022/12/02 04:26:43;;;;;;;28.03;15.33;;;9.30;77.70;9.20;96495.00;;;;5063089;28;20256;-85
2022/12/02 04:29:10;;;;;;;25.70;16.40;;;9.30;77.70;9.20;96500.00;;;;5062098;28;20203;-85
2022/12/02 04:31:37;;;;;;;27.83;16.07;;;9.30;77.70;9.20;96493.00;;;;5058921;28;20240;-86
2022/12/02 04:34:05;;;;;;;33.97;16.20;;;9.30;77.70;9.20;96492.00;;;;5059616;28;20248;-87
2022/12/02 04:36:32;;;;;;;26.13;14.70;;;9.30;77.60;9.20;96491.00;;;;5058400;28;20286;-85
2022/12/02 04:38:59;;;;;;;28.37;15.80;;;9.30;77.60;9.20;96486.00;;;;5060164;28;20232;-86
2022/12/02 04:41:28;;;;;;;30.87;15.97;;;9.30;77.70;9.20;96486.00;;;;5058305;28;20323;-86
2022/12/02 04:43:55;;;;;;;26.73;14.77;;;9.30;77.60;9.20;96484.00;;;;5061412;28;20227;-87
2022/12/02 04:46:22;;;;;;;28.80;16.10;;;9.30;77.60;9.20;96483.00;;;;5060075;28;20247;-86
2022/12/02 04:48:49;;;;;;;29.17;15.33;;;9.30;77.60;9.20;96485.00;;;;5058256;28;20205;-85
2022/12/02 04:51:17;;;;;;;29.50;16.23;;;9.30;77.60;9.20;96478.00;;;;5058140;28;20236;-87
2022/12/02 04:53:44;;;;;;;25.83;15.47;;;9.30;77.50;9.20;96479.00;;;;5058026;28;20315;-86
2022/12/02 04:56:11;;;;;;;28.27;16.40;;;9.30;77.60;9.20;96480.00;;;;5058862;28;20291;-86
2022/12/02 04:58:39;;;;;;;29.80;16.23;;;9.30;77.70;9.20;96477.00;;;;5053839;28;20231;-86
2022/12/02 05:01:06;;;;;;;31.90;15.83;;;9.30;78.40;9.20;96469.00;;;;5055878;28;20283;-86
2022/12/02 05:03:33;;;;;;;29.17;16.13;;;9.30;77.70;9.20;96477.00;;;;5052934;28;20323;-86
2022/12/02 05:06:00;;;;;;;28.77;17.20;;;9.30;77.60;9.20;96474.00;;;;5055447;28;20305;-86
2022/12/02 05:08:28;;;;;;;34.97;15.87;;;9.30;77.60;9.20;96478.00;;;;5052947;28;20291;-86
2022/12/02 05:10:55;;;;;;;30.57;16.63;;;9.30;77.60;9.20;96475.00;;;;5054496;28;20231;-86
2022/12/02 05:13:22;;;;;;;35.23;16.47;;;9.30;77.60;9.20;96474.00;;;;5055638;28;20326;-86
2022/12/02 05:15:50;;;;;;;31.17;16.37;;;9.30;77.60;9.20;96472.00;;;;5057425;28;20286;-86
2022/12/02 05:18:17;;;;;;;31.27;16.53;;;9.30;77.50;9.20;96478.00;;;;5058867;28;20207;-85
2022/12/02 05:20:44;;;;;;;28.40;15.47;;;9.30;78.20;9.20;96465.00;;;;5057325;28;20291;-86
2022/12/02 05:23:12;;;;;;;28.13;15.50;;;9.30;77.50;9.20;96470.00;;;;5056229;28;20248;-86
2022/12/02 05:25:40;;;;;;;33.03;17.10;;;9.30;77.50;9.10;96465.00;;;;5058038;28;20201;-87
2022/12/02 05:28:07;;;;;;;26.53;16.43;;;9.30;77.50;9.10;96472.00;;;;5059703;28;20235;-86
2022/12/02 05:30:34;;;;;;;30.33;16.37;;;9.30;77.30;9.10;96469.00;;;;5058854;28;20200;-86
2022/12/02 05:33:03;;;;;;;35.27;17.27;;;9.30;77.30;9.10;96470.00;;;;5059236;28;20260;-86
2022/12/02 05:35:30;;;;;;;32.60;16.90;;;9.30;77.30;9.10;96473.00;;;;5055193;28;20200;-85
2022/12/02 05:37:57;;;;;;;27.63;16.03;;;9.30;78.00;9.10;96474.00;;;;5060391;28;20294;-87
2022/12/02 05:40:24;;;;;;;27.20;16.37;;;9.30;77.30;9.10;96469.00;;;;5056863;28;20283;-86
2022/12/02 05:42:51;;;;;;;30.17;16.53;;;9.30;77.30;9.10;96475.00;;;;5059814;28;20243;-86
2022/12/02 05:45:22;;;;;;;32.53;17.20;;;9.30;77.40;9.20;96472.00;;;;5059706;28;20256;-86
2022/12/02 05:47:52;;;;;;;45.90;17.40;;;9.30;77.40;9.10;96470.00;;;;5058486;28;20222;-86
2022/12/02 05:50:22;;;;;;;29.43;16.90;;;9.30;77.50;9.10;96467.00;;;;5057560;28;20283;-86
2022/12/02 05:52:49;;;;;;;30.23;16.87;;;9.30;77.50;9.10;96463.00;;;;5060730;28;20261;-86
2022/12/02 05:55:20;;;;;;;27.93;16.23;;;9.30;77.50;9.10;96470.00;;;;5058775;28;20565;-86
2022/12/02 05:57:48;;;;;;;28.83;16.10;;;9.30;77.50;9.20;96468.00;;;;5058883;28;20236;-86
2022/12/02 06:00:19;;;;;;;28.70;16.20;;;9.30;77.50;9.20;96473.00;;;;5057871;28;20342;-87
2022/12/02 06:02:50;;;;;;;29.37;15.77;;;9.30;77.60;9.10;96471.00;;;;5058869;28;20281;-85
2022/12/02 06:05:23;;;;;;;29.90;16.63;;;9.30;77.60;9.20;96476.00;;;;5056517;28;20196;-85
2022/12/02 06:07:55;;;;;;;36.97;16.57;;;9.30;77.60;9.10;96467.00;;;;5058458;28;20278;-86
2022/12/02 06:10:29;;;;;;;26.73;15.93;;;9.30;77.60;9.20;96467.00;;;;5057536;28;20312;-86
2022/12/02 06:13:00;;;;;;;28.60;16.77;;;9.30;77.60;9.10;96463.00;;;;5056493;28;20672;-84
2022/12/02 06:15:34;;;;;;;28.73;15.90;;;9.30;77.60;9.20;96468.00;;;;5057764;28;20339;-85
2022/12/02 06:18:01;;;;;;;26.17;15.17;;;9.30;77.50;9.20;96468.00;;;;5057068;28;20202;-85
2022/12/02 06:20:34;;;;;;;27.00;15.23;;;9.30;77.60;9.20;96469.00;;;;5058204;28;20724;-86
2022/12/02 06:23:02;;;;;;;28.73;15.60;;;9.30;77.60;9.20;96460.00;;;;5053098;28;20221;-86
2022/12/02 06:25:32;;;;;;;27.83;16.97;;;9.30;77.50;9.20;96466.00;;;;5056473;28;20224;-86
2022/12/02 06:28:14;;;;;;;27.03;16.20;;;9.30;77.50;9.20;96465.00;;;;5057458;28;20228;-86
2022/12/02 06:30:41;;;;;;;26.17;15.27;;;9.30;77.60;9.20;96475.00;;;;5056877;28;20315;-86
2022/12/02 06:33:26;;;;;;;27.67;16.27;;;9.20;77.50;9.20;96468.00;;;;5058938;28;20701;-86
2022/12/02 06:35:57;;;;;;;27.33;15.10;;;9.30;77.40;9.20;96476.00;;;;5056331;28;20230;-85
2022/12/02 06:38:29;;;;;;;26.67;15.07;;;9.30;77.50;9.20;96478.00;;;;5057571;28;20921;-86
2022/12/02 06:40:59;;;;;;;27.13;15.60;;;9.30;77.50;9.20;96486.00;;;;5057008;28;20207;-86
2022/12/02 06:43:30;;;;;;;23.70;15.03;;;9.30;77.50;9.20;96485.00;;;;5056910;28;20252;-86
2022/12/02 06:45:58;;;;;;;32.43;15.03;;;9.30;77.50;9.20;96484.00;;;;5054498;28;20240;-86
2022/12/02 06:48:33;;;;;;;27.17;16.23;;;9.30;77.50;9.20;96475.00;;;;5055397;28;20258;-86
2022/12/02 06:51:18;;;;;;;26.13;16.30;;;9.30;77.20;9.20;96468.00;;;;5056232;28;20637;-86
2022/12/02 06:53:47;;;;;;;29.57;15.10;;;9.30;77.10;9.20;96475.00;;;;5053502;28;20228;-86
2022/12/02 06:56:23;;;;;;;25.90;14.73;;;9.30;77.20;9.20;96479.00;;;;5055551;28;20296;-85
2022/12/02 06:58:58;;;;;;;26.67;15.83;;;9.30;77.20;9.20;96477.00;;;;5056272;28;20221;-85
2022/12/02 07:01:31;;;;;;;27.23;14.83;;;9.30;77.00;9.20;96476.00;;;;5055482;28;20246;-85
2022/12/02 07:04:28;;;;;;;26.53;15.30;;;9.30;77.00;9.20;96470.00;;;;5056563;28;20224;-85
2022/12/02 07:07:01;;;;;;;23.90;14.10;;;9.30;77.00;9.20;96486.00;;;;5055660;28;20216;-85
2022/12/02 07:09:37;;;;;;;25.17;15.03;;;9.30;76.80;9.20;96475.00;;;;5055540;28;20760;-87
2022/12/02 07:12:14;;;;;;;25.50;15.50;;;9.30;76.70;9.20;96485.00;;;;5056340;28;20211;-87
2022/12/02 07:14:47;;;;;;;23.33;14.87;;;9.30;76.50;9.20;96484.00;;;;5053406;28;20670;-87
2022/12/02 07:17:23;;;;;;;23.17;13.33;;;9.30;76.30;9.20;96480.00;;;;5054529;28;20236;-86
2022/12/02 07:19:57;;;;;;;24.37;14.20;;;9.30;76.00;9.20;96484.00;;;;5057197;28;20246;-87
2022/12/02 07:22:33;;;;;;;21.63;13.70;;;9.40;76.10;9.20;96487.00;;;;5055334;28;20215;-88
2022/12/02 07:25:29;;;;;;;23.77;14.30;;;9.30;75.60;9.20;96485.00;;;;5057646;28;20235;-86
2022/12/02 07:27:57;;;;;;;21.50;13.93;;;9.30;75.40;9.20;96485.00;;;;5055381;28;20258;-87
2022/12/02 07:30:33;;;;;;;22.63;13.60;;;9.20;75.50;9.20;96475.00;;;;5053675;28;20207;-87
2022/12/02 07:33:00;;;;;;;26.30;15.03;;;9.20;75.50;9.20;96480.00;;;;5048596;28;20220;-88
2022/12/02 07:35:28;;;;;;;28.43;14.63;;;9.30;75.60;9.20;96484.00;;;;5051448;28;20261;-87
2022/12/02 07:37:58;;;;;;;23.20;14.53;;;9.10;75.40;9.20;96479.00;;;;5053856;28;20291;-87
2022/12/02 07:40:25;;;;;;;24.43;14.63;;;9.20;75.50;9.20;96478.00;;;;5051170;28;20246;-90
2022/12/02 07:42:52;;;;;;;25.33;14.87;;;9.20;75.40;9.10;96484.00;;;;5055304;28;20260;-88
2022/12/02 07:45:20;;;;;;;24.57;13.67;;;9.20;75.20;9.10;96489.00;;;;5055094;28;20226;-89
2022/12/02 07:47:48;;;;;;;29.70;15.57;;;9.20;75.30;9.10;96487.00;;;;5055317;28;20315;-88
2022/12/02 07:50:17;;;;;;;24.07;14.10;;;9.20;75.60;9.10;96477.00;;;;5054828;28;20197;-87
2022/12/02 07:52:44;;;;;;;25.40;14.97;;;9.20;75.60;9.10;96483.00;;;;5058088;28;20658;-88
2022/12/02 07:55:12;;;;;;;25.47;14.87;;;9.20;75.60;9.10;96479.00;;;;5055615;28;20572;-86
2022/12/02 07:57:39;;;;;;;25.77;15.50;;;9.10;75.20;9.10;96491.00;;;;5054695;28;20291;-87
2022/12/02 08:00:09;;;;;;;24.80;15.57;;;9.10;75.00;9.00;96487.00;;;;5055145;28;20286;-87
2022/12/02 08:02:36;;;;;;;37.50;15.53;;;9.10;75.00;9.00;96479.00;;;;5054887;28;20223;-88
2022/12/02 08:05:04;;;;;;;24.73;14.83;;;9.10;75.10;9.00;96485.00;;;;5055704;28;20255;-89
2022/12/02 08:07:32;;;;;;;27.77;14.80;;;9.10;75.40;9.00;96480.00;;;;5045040;28;20221;-88
2022/12/02 08:09:59;;;;;;;27.73;15.17;;;9.10;75.50;9.00;96489.00;;;;5056367;28;20756;-87
2022/12/02 08:12:27;;;;;;;29.13;16.13;;;9.10;75.30;9.00;96484.00;;;;5056011;28;20318;-88
2022/12/02 08:14:54;;;;;;;29.37;15.60;;;9.10;75.40;9.00;96486.00;;;;5055838;28;20235;-88
2022/12/02 08:17:22;;;;;;;29.23;16.23;;;9.10;75.50;9.10;96483.00;;;;5055317;28;20294;-88
2022/12/02 08:19:49;;;;;;;28.00;16.33;;;9.10;75.60;9.10;96477.00;;;;5055688;28;20196;-87
2022/12/02 08:22:16;;;;;;;28.77;15.73;;;9.10;75.60;9.10;96474.00;;;;5056884;28;20242;-88
2022/12/02 08:24:43;;;;;;;30.23;15.93;;;9.00;76.20;9.10;96476.00;;;;5055238;28;20592;-88
2022/12/02 08:27:10;;;;;;;29.60;15.43;;;9.10;75.60;9.10;96474.00;;;;5056036;28;20767;-88
2022/12/02 08:29:39;;;;;;;27.73;15.93;;;9.10;75.60;9.10;96480.00;;;;5055910;28;20204;-87
2022/12/02 08:32:06;;;;;;;29.23;16.03;;;9.10;75.70;9.10;96478.00;;;;5055738;28;20261;-86
2022/12/02 08:34:33;;;;;;;26.50;15.70;;;9.10;75.90;9.10;96483.00;;;;5058907;28;20216;-88
2022/12/02 08:37:00;;;;;;;26.80;15.30;;;9.10;75.90;9.10;96480.00;;;;5058537;28;20231;-87
2022/12/02 08:39:28;;;;;;;30.63;16.43;;;9.10;75.70;9.10;96488.00;;;;5058713;28;20266;-87
2022/12/02 08:41:55;;;;;;;29.03;16.47;;;9.10;75.70;9.10;96486.00;;;;5056534;28;20715;-87
2022/12/02 08:44:22;;;;;;;29.67;15.87;;;9.10;75.80;9.10;96476.00;;;;5055911;28;20737;-87
2022/12/02 08:46:50;;;;;;;39.00;16.67;;;9.10;76.00;9.10;96480.00;;;;5058788;28;20351;-87
2022/12/02 08:49:18;;;;;;;28.10;15.87;;;9.10;76.10;9.10;96490.00;;;;5060179;28;20257;-87
2022/12/02 08:51:45;;;;;;;31.17;15.80;;;9.10;76.20;9.10;96476.00;;;;5060388;28;21238;-87
2022/12/02 08:54:14;;;;;;;28.73;16.40;;;9.10;76.10;9.20;96478.00;;;;5052176;28;20267;-88
2022/12/02 08:56:41;;;;;;;29.67;15.63;;;9.10;76.00;9.20;96475.00;;;;5058827;28;20283;-88
2022/12/02 08:59:09;;;;;;;30.93;16.70;;;9.10;75.90;9.20;96478.00;;;;5061538;28;20204;-88
2022/12/02 09:01:36;;;;;;;31.13;16.77;;;9.10;75.80;9.20;96472.00;;;;5060911;28;20214;-87
2022/12/02 09:04:05;;;;;;;27.77;15.27;;;9.10;75.80;9.20;96469.00;;;;5061469;28;20254;-88
2022/12/02 09:06:32;;;;;;;33.70;16.47;;;9.10;75.70;9.20;96479.00;;;;5059862;28;20254;-88
2022/12/02 09:08:59;;;;;;;30.77;16.90;;;9.20;75.80;9.20;96471.00;;;;5058994;28;20259;-87
2022/12/02 09:11:26;;;;;;;28.00;16.27;;;9.10;75.80;9.20;96473.00;;;;5059828;28;20621;-88
2022/12/02 09:13:53;;;;;;;32.97;17.17;;;9.20;75.80;9.20;96474.00;;;;5062454;28;20267;-88
2022/12/02 09:16:20;;;;;;;29.47;16.67;;;9.10;75.80;9.20;96467.00;;;;5060596;28;20257;-87
2022/12/02 09:18:49;;;;;;;32.77;16.73;;;9.10;75.90;9.20;96475.00;;;;5059583;28;20323;-87
2022/12/02 09:21:17;;;;;;;26.27;15.03;;;9.10;76.10;9.20;96475.00;;;;5057838;28;20588;-87
2022/12/02 09:23:44;;;;;;;27.90;15.87;;;9.20;76.30;9.20;96470.00;;;;5059771;28;20266;-87
2022/12/02 09:26:12;;;;;;;31.30;16.30;;;9.20;76.20;9.20;96469.00;;;;5055180;28;20204;-88
2022/12/02 09:28:39;;;;;;;28.93;16.37;;;9.20;76.40;9.20;96471.00;;;;5067105;28;20228;-88
2022/12/02 09:31:06;;;;;;;31.03;17.07;;;9.10;76.50;9.20;96468.00;;;;5061131;28;20226;-88
2022/12/02 09:33:33;;;;;;;28.50;16.23;;;9.20;76.50;9.30;96465.00;;;;5060784;28;20332;-88
2022/12/02 09:36:00;;;;;;;28.47;16.40;;;9.20;76.60;9.30;96466.00;;;;5061096;28;20228;-88
2022/12/02 09:38:30;;;;;;;29.43;15.23;;;9.20;76.80;9.30;96469.00;;;;5059085;28;20296;-88
2022/12/02 09:40:58;;;;;;;26.23;15.13;;;9.20;76.90;9.30;96472.00;;;;5061524;28;20192;-91
2022/12/02 09:43:26;;;;;;;27.23;14.57;;;9.20;77.00;9.30;96465.00;;;;5060615;28;20251;-88
2022/12/02 09:45:54;;;;;;;24.37;14.90;;;9.20;77.00;9.30;96460.00;;;;5063025;28;20227;-88
2022/12/02 09:48:22;;;;;;;24.83;14.57;;;9.30;77.00;9.40;96467.00;;;;5059347;28;20311;-88
2022/12/02 09:50:50;;;;;;;24.20;15.53;;;9.30;77.00;9.40;96465.00;;;;5063060;28;20296;-88
2022/12/02 09:53:20;;;;;;;24.20;14.23;;;9.30;77.00;9.40;96465.00;;;;5061913;28;20251;-88
2022/12/02 09:55:48;;;;;;;28.33;15.27;;;9.30;77.00;9.50;96465.00;;;;5061023;28;20204;-88
2022/12/02 09:58:18;;;;;;;26.07;15.03;;;9.30;77.00;9.50;96463.00;;;;5062682;28;20733;-88
2022/12/02 10:00:46;;;;;;;24.60;15.27;;;9.40;77.00;9.50;96454.00;;;;5058467;28;20286;-88
2022/12/02 10:03:17;;;;;;;24.63;14.20;;;9.40;77.10;9.50;96455.00;;;;5051355;28;20233;-89
2022/12/02 10:05:45;;;;;;;22.50;14.67;;;9.40;76.90;9.50;96461.00;;;;5058816;28;20192;-89
2022/12/02 10:08:19;;;;;;;26.83;15.17;;;9.40;76.60;9.50;96462.00;;;;5058094;28;20232;-88
2022/12/02 10:10:49;;;;;;;27.20;14.93;;;9.40;76.40;9.50;96453.00;;;;5058809;28;20234;-88
2022/12/02 10:13:19;;;;;;;22.87;13.37;;;9.40;76.60;9.60;96454.00;;;;5056864;28;20228;-88
2022/12/02 10:15:47;;;;;;;23.30;13.40;;;9.40;76.70;9.60;96446.00;;;;5058427;28;20651;-88
2022/12/02 10:18:19;;;;;;;23.17;13.93;;;9.40;76.80;9.60;96449.00;;;;5058518;28;20712;-87
2022/12/02 10:20:49;;;;;;;23.67;14.07;;;9.50;77.00;9.60;96450.00;;;;5058120;28;20291;-87
2022/12/02 10:23:18;;;;;;;24.07;14.60;;;9.50;77.10;9.60;96451.00;;;;5057155;28;20221;-88
2022/12/02 10:25:51;;;;;;;24.90;13.40;;;9.50;77.10;9.60;96446.00;;;;5058427;28;20227;-87
2022/12/02 10:28:24;;;;;;;21.10;13.17;;;9.50;77.00;9.70;96447.00;;;;5057797;28;20297;-89
2022/12/02 10:30:56;;;;;;;24.27;13.33;;;9.50;77.00;9.70;96435.00;;;;5056915;28;20201;-89
2022/12/02 10:33:30;;;;;;;21.17;13.20;;;9.50;77.00;9.70;96444.00;;;;5056884;28;20307;-88
2022/12/02 10:35:59;;;;;;;23.67;13.70;;;9.50;77.00;9.70;96438.00;;;;5057975;28;20290;-88
2022/12/02 10:38:34;;;;;;;24.47;14.50;;;9.60;77.70;9.70;96440.00;;;;5056987;28;20205;-88
2022/12/02 10:41:21;;;;;;;22.57;13.50;;;9.50;76.80;9.70;96428.00;;;;5058710;28;20286;-88
2022/12/02 10:44:05;;;;;;;22.87;13.27;;;9.60;76.80;9.70;96431.00;;;;5058591;28;20310;-88
2022/12/02 10:46:34;;;;;;;21.70;12.30;;;9.60;76.80;9.70;96439.00;;;;5058615;28;20206;-87
2022/12/02 10:49:33;;;;;;;22.63;13.80;;;9.60;76.90;9.80;96430.00;;;;5057377;28;20594;-88
2022/12/02 10:52:07;;;;;;;21.30;12.97;;;9.60;76.50;9.80;96439.00;;;;5057996;28;20310;-88
2022/12/02 10:54:36;;;;;;;21.10;13.30;;;9.60;76.70;9.80;96430.00;;;;5058533;28;20311;-88
2022/12/02 10:57:06;;;;;;;24.70;14.07;;;9.60;76.90;9.80;96429.00;;;;5056547;28;20227;-89
2022/12/02 10:59:34;;;;;;;22.87;13.70;;;9.60;77.00;9.90;96427.00;;;;5058403;28;20205;-88
2022/12/02 11:02:01;;;;;;;22.43;13.97;;;9.60;77.10;9.90;96420.00;;;;5058128;28;20195;-87
2022/12/02 11:04:29;;;;;;;23.70;14.57;;;9.70;77.20;9.90;96418.00;;;;5058206;28;20200;-87
2022/12/02 11:06:56;;;;;;;22.93;14.67;;;9.70;77.20;9.90;96415.00;;;;5056300;28;20208;-87